createdAt,value
2022-08-27T00:03:12.409Z,23.50
2022-08-27T00:08:14.232Z,23.50
2022-08-27T00:13:16.175Z,23.50
2022-08-27T00:18:22.449Z,23.50
2022-08-27T00:23:24.673Z,23.45
2022-08-27T00:28:29.172Z,23.29
2022-08-27T00:33:31.009Z,23.33
2022-08-27T00:38:32.990Z,23.28
2022-08-27T00:43:48.322Z,23.28
2022-08-27T00:48:52.665Z,23.28
2022-08-27T00:53:56.679Z,23.25
2022-08-27T00:58:58.568Z,23.21
2022-08-27T01:04:03.717Z,23.16
2022-08-27T01:09:10.047Z,23.07
2022-08-27T01:14:12.842Z,23.07
2022-08-27T01:19:46.782Z,22.95
2022-08-27T01:24:52.001Z,22.95
2022-08-27T01:29:53.900Z,22.91
2022-08-27T01:34:57.005Z,22.98
2022-08-27T01:39:59.142Z,22.89
2022-08-27T01:45:13.257Z,22.84
2022-08-27T01:50:18.750Z,22.72
2022-08-27T01:55:24.973Z,22.53
2022-08-27T02:00:30.404Z,22.51
2022-08-27T02:05:32.716Z,22.31
2022-08-27T02:10:48.381Z,22.13
2022-08-27T02:15:50.388Z,22.16
2022-08-27T02:20:52.275Z,22.16
2022-08-27T02:25:54.206Z,22.06
2022-08-27T02:30:56.091Z,21.97
2022-08-27T02:35:57.772Z,22.02
2022-08-27T02:40:59.492Z,21.86
2022-08-27T02:46:01.647Z,21.83
2022-08-27T02:51:06.061Z,21.94
2022-08-27T02:56:08.129Z,21.97
2022-08-27T03:01:13.681Z,21.98
2022-08-27T03:06:16.194Z,21.98
2022-08-27T03:11:18.060Z,21.90
2022-08-27T03:16:19.902Z,21.92
2022-08-27T03:21:26.499Z,21.87
2022-08-27T03:26:29.528Z,21.91
2022-08-27T03:31:31.421Z,21.88
2022-08-27T03:36:33.456Z,21.84
2022-08-27T03:41:39.956Z,21.75
2022-08-27T03:46:56.292Z,21.73
2022-08-27T03:51:58.212Z,21.68
2022-08-27T03:56:59.883Z,21.69
2022-08-27T04:02:02.405Z,21.72
2022-08-27T04:07:04.941Z,21.73
2022-08-27T04:12:06.760Z,21.72
2022-08-27T04:17:08.514Z,21.72
2022-08-27T04:22:10.193Z,21.71
2022-08-27T04:27:14.398Z,21.76
2022-08-27T04:32:16.100Z,21.77
2022-08-27T04:37:17.899Z,21.77
2022-08-27T04:42:25.429Z,21.76
2022-08-27T04:47:27.200Z,21.75
2022-08-27T04:52:29.051Z,21.75
2022-08-27T04:57:30.732Z,21.77
2022-08-27T05:02:32.546Z,21.76
2022-08-27T05:07:34.509Z,21.76
2022-08-27T05:12:36.137Z,21.75
2022-08-27T05:17:37.779Z,21.72
2022-08-27T05:22:39.671Z,21.69
2022-08-27T05:27:41.566Z,21.68
2022-08-27T05:32:43.608Z,21.64
2022-08-27T05:37:45.984Z,21.68
2022-08-27T05:42:51.103Z,21.70
2022-08-27T05:47:53.165Z,21.73
2022-08-27T05:52:54.855Z,21.73
2022-08-27T05:57:56.548Z,21.70
2022-08-27T06:02:58.226Z,21.70
2022-08-27T06:08:00.083Z,21.69
2022-08-27T06:13:03.480Z,21.80
2022-08-27T06:18:05.325Z,21.95
2022-08-27T06:23:07.343Z,22.14
2022-08-27T06:28:09.644Z,22.48
2022-08-27T06:33:11.397Z,22.94
2022-08-27T06:38:13.256Z,23.24
2022-08-27T06:43:14.889Z,23.51
2022-08-27T06:48:17.348Z,23.78
2022-08-27T06:53:19.337Z,23.98
2022-08-27T06:58:26.652Z,24.15
2022-08-27T07:03:28.542Z,24.24
2022-08-27T07:08:30.376Z,24.55
2022-08-27T07:13:32.175Z,25.02
2022-08-27T07:18:34.433Z,24.92
2022-08-27T07:23:37.624Z,25.01
2022-08-27T07:28:40.901Z,25.13
2022-08-27T07:33:50.620Z,25.43
2022-08-27T07:39:01.203Z,25.71
2022-08-27T07:44:26.068Z,25.84
2022-08-27T07:49:31.227Z,25.82
2022-08-27T07:54:33.320Z,25.85
2022-08-27T07:59:35.489Z,25.79
2022-08-27T08:04:37.173Z,25.81
2022-08-27T08:09:38.833Z,25.93
2022-08-27T08:14:40.581Z,25.98
2022-08-27T08:19:47.439Z,25.68
2022-08-27T08:24:59.426Z,26.00
2022-08-27T08:30:01.517Z,26.02
2022-08-27T08:35:05.490Z,26.35
2022-08-27T08:40:08.081Z,26.57
2022-08-27T08:45:14.001Z,26.75
2022-08-27T08:50:23.868Z,26.80
2022-08-27T08:55:43.800Z,26.46
2022-08-27T09:00:48.910Z,26.77
2022-08-27T09:06:05.419Z,27.06
2022-08-27T09:11:34.170Z,27.28
2022-08-27T09:16:36.994Z,27.42
2022-08-27T09:21:49.464Z,27.55
2022-08-27T09:26:52.057Z,27.66
2022-08-27T09:31:59.144Z,27.72
2022-08-27T09:37:24.238Z,27.46
2022-08-27T09:42:41.399Z,27.63
2022-08-27T09:47:49.436Z,27.90
2022-08-27T09:52:55.344Z,28.01
2022-08-27T09:57:57.274Z,28.09
2022-08-27T10:03:00.813Z,28.30
2022-08-27T10:08:10.878Z,28.44
2022-08-27T10:13:28.880Z,28.63
2022-08-27T10:18:48.987Z,28.79
2022-08-27T10:24:05.894Z,28.76
2022-08-27T10:29:19.864Z,28.82
2022-08-27T10:34:50.847Z,28.72
2022-08-27T10:40:14.424Z,28.35
2022-08-27T10:45:49.093Z,28.60
2022-08-27T10:51:04.808Z,28.60
2022-08-27T10:56:28.545Z,28.97
2022-08-27T11:01:48.445Z,29.18
2022-08-27T11:06:56.896Z,29.36
2022-08-27T11:12:18.418Z,29.60
2022-08-27T11:17:44.021Z,29.60
2022-08-27T11:22:51.034Z,29.53
2022-08-27T11:27:56.147Z,29.41
2022-08-27T11:33:14.217Z,29.09
2022-08-27T11:38:27.525Z,28.92
2022-08-27T11:43:35.402Z,29.36
2022-08-27T11:48:41.853Z,29.74
2022-08-27T11:53:57.500Z,29.67
2022-08-27T11:59:23.700Z,29.40
2022-08-27T12:04:31.511Z,29.71
2022-08-27T12:10:11.407Z,29.82
2022-08-27T12:15:27.548Z,30.06
2022-08-27T12:20:36.252Z,30.21
2022-08-27T12:25:38.493Z,30.13
2022-08-27T12:30:52.008Z,29.89
2022-08-27T12:35:56.431Z,30.09
2022-08-27T12:41:04.012Z,30.18
2022-08-27T12:46:12.810Z,30.44
2022-08-27T12:51:23.206Z,30.63
2022-08-27T12:56:37.313Z,30.60
2022-08-27T13:02:04.416Z,30.61
2022-08-27T13:07:06.218Z,30.64
2022-08-27T13:12:17.001Z,30.24
2022-08-27T13:17:22.657Z,30.09
2022-08-27T13:22:29.112Z,30.05
2022-08-27T13:27:33.809Z,30.07
2022-08-27T13:32:37.642Z,30.18
2022-08-27T13:37:44.968Z,30.19
2022-08-27T13:42:46.996Z,30.16
2022-08-27T13:47:49.917Z,29.96
2022-08-27T13:53:12.084Z,29.88
2022-08-27T13:58:19.557Z,29.88
2022-08-27T14:03:32.164Z,30.12
2022-08-27T14:08:36.053Z,30.08
2022-08-27T14:13:41.125Z,30.13
2022-08-27T14:19:13.313Z,30.13
2022-08-27T14:24:15.247Z,30.34
2022-08-27T14:29:17.841Z,30.37
2022-08-27T14:34:26.697Z,30.36
2022-08-27T14:39:28.616Z,30.05
2022-08-27T14:44:31.091Z,29.99
2022-08-27T14:49:37.644Z,29.61
2022-08-27T14:54:41.042Z,29.83
2022-08-27T14:59:42.854Z,29.99
2022-08-27T15:04:47.257Z,30.08
2022-08-27T15:09:50.060Z,30.19
2022-08-27T15:14:51.748Z,30.11
2022-08-27T15:19:53.357Z,30.24
2022-08-27T15:24:57.109Z,30.17
2022-08-27T15:29:59.902Z,29.97
2022-08-27T15:35:05.359Z,29.94
2022-08-27T15:40:08.137Z,29.82
2022-08-27T15:45:12.944Z,29.75
2022-08-27T15:50:14.868Z,29.73
2022-08-27T15:55:23.954Z,29.86
2022-08-27T16:00:26.977Z,29.70
2022-08-27T16:05:34.308Z,29.46
2022-08-27T16:10:36.949Z,29.41
2022-08-27T16:15:40.731Z,29.34
2022-08-27T16:20:42.725Z,29.23
2022-08-27T16:25:44.618Z,29.16
2022-08-27T16:30:47.567Z,29.08
2022-08-27T16:35:50.410Z,29.03
2022-08-27T16:40:54.643Z,28.96
2022-08-27T16:45:58.870Z,28.87
2022-08-27T16:51:01.120Z,28.78
2022-08-27T16:56:03.485Z,28.73
2022-08-27T17:01:08.568Z,28.61
2022-08-27T17:06:10.809Z,28.53
2022-08-27T17:11:16.353Z,28.44
2022-08-27T17:16:21.880Z,28.38
2022-08-27T17:21:29.149Z,28.30
2022-08-27T17:26:32.936Z,28.20
2022-08-27T17:31:37.189Z,28.09
2022-08-27T17:36:38.789Z,27.94
2022-08-27T17:41:44.065Z,27.89
2022-08-27T17:46:46.132Z,27.74
2022-08-27T17:51:49.493Z,27.74
2022-08-27T17:56:51.685Z,27.67
2022-08-27T18:01:53.815Z,27.50
2022-08-27T18:06:55.515Z,27.40
2022-08-27T18:11:58.403Z,27.31
2022-08-27T18:17:00.261Z,27.19
2022-08-27T18:22:02.141Z,27.10
2022-08-27T18:27:04.179Z,26.99
2022-08-27T18:32:06.377Z,27.07
2022-08-27T18:37:08.225Z,27.15
2022-08-27T18:42:11.903Z,27.02
2022-08-27T18:47:13.637Z,26.90
2022-08-27T18:52:22.803Z,26.81
2022-08-27T18:57:24.716Z,26.77
2022-08-27T19:02:27.535Z,26.47
2022-08-27T19:07:29.929Z,26.28
2022-08-27T19:12:32.020Z,26.17
2022-08-27T19:17:35.943Z,26.09
2022-08-27T19:22:38.342Z,26.02
2022-08-27T19:27:40.471Z,25.99
2022-08-27T19:32:42.821Z,25.97
2022-08-27T19:37:52.705Z,25.91
2022-08-27T19:42:55.292Z,25.83
2022-08-27T19:47:56.929Z,25.73
2022-08-27T19:52:58.941Z,25.67
2022-08-27T19:58:00.624Z,25.70
2022-08-27T20:03:02.462Z,25.62
2022-08-27T20:08:05.506Z,25.57
2022-08-27T20:13:07.986Z,25.51
2022-08-27T20:18:10.748Z,25.35
2022-08-27T20:23:13.133Z,25.27
2022-08-27T20:28:38.431Z,25.24
2022-08-27T20:33:37.343Z,25.13
2022-08-27T20:38:39.644Z,25.02
2022-08-27T20:43:41.361Z,24.81
2022-08-27T20:48:43.036Z,24.58
2022-08-27T20:53:44.885Z,24.33
2022-08-27T20:59:05.015Z,24.07
2022-08-27T21:04:06.665Z,23.68
2022-08-27T21:09:08.436Z,23.47
2022-08-27T21:14:10.057Z,23.24
2022-08-27T21:19:12.309Z,23.14
2022-08-27T21:24:14.433Z,23.04
2022-08-27T21:29:17.684Z,22.91
2022-08-27T21:34:19.325Z,22.81
2022-08-27T21:39:21.149Z,22.70
2022-08-27T21:44:22.776Z,22.62
2022-08-27T21:49:24.414Z,22.52
2022-08-27T21:54:26.613Z,22.44
2022-08-27T21:59:31.746Z,22.35
2022-08-27T22:04:33.996Z,22.31
2022-08-27T22:09:36.148Z,22.27
2022-08-27T22:14:38.936Z,22.21
2022-08-27T22:19:40.605Z,22.15
2022-08-27T22:24:42.416Z,22.07
2022-08-27T22:29:44.285Z,22.06
2022-08-27T22:34:46.117Z,22.06
2022-08-27T22:39:47.898Z,22.03
2022-08-27T22:44:49.535Z,21.95
2022-08-27T22:49:52.918Z,21.54
2022-08-27T22:54:55.203Z,21.43
2022-08-27T22:59:58.285Z,21.28
2022-08-27T23:05:03.511Z,21.29
2022-08-27T23:10:09.479Z,21.25
2022-08-27T23:15:11.650Z,21.08
2022-08-27T23:20:13.832Z,20.98
2022-08-27T23:25:34.448Z,20.78
2022-08-27T23:30:36.835Z,20.58
2022-08-27T23:35:38.820Z,20.52
2022-08-27T23:40:41.031Z,20.43
2022-08-27T23:45:43.509Z,20.58
2022-08-27T23:50:45.272Z,20.65
2022-08-27T23:55:47.185Z,20.67
